Time;durP1;ratioP1;P1;durP2;ratioP2;P2;SDS_P1;SDS_P2;PMS_P1;PMS_P2;Temp;Humidity;BMP_temperature;BMP_pressure;BME280_temperature;BME280_humidity;BME280_pressure;Samples;Min_cycle;Max_cycle;Signal;HPM_P1;HPM_P2
2023/10/13 00:01:42;;;;;;;;;;;;;;;;;;5054950;28;19928;-62
2023/10/13 00:04:08;;;;;;;;;;;;;;;;;;5054603;28;20432;-62
2023/10/13 00:06:34;;;;;;;;;;;;;;;;;;5053471;28;19921;-61
2023/10/13 00:09:00;;;;;;;;;;;;;;;;;;5069769;28;19956;-61
2023/10/13 00:11:26;;;;;;;;;;;;;;;;;;5054657;28;19979;-62
2023/10/13 00:13:54;;;;;;;;;;;;;;;;;;5052997;28;20016;-62
2023/10/13 00:16:27;;;;;;;;;;;;;;;;;;5054642;28;19928;-62
2023/10/13 00:18:57;;;;;;;;;;;;;;;;;;5054416;28;20019;-62
2023/10/13 00:21:32;;;;;;;;;;;;;;;;;;5055031;28;19933;-61
2023/10/13 00:24:00;;;;;;;;;;;;;;;;;;5070592;28;19921;-61
2023/10/13 00:26:30;;;;;;;;;;;;;;;;;;5055433;28;19975;-61
2023/10/13 00:29:08;;;;;;;;;;;;;;;;;;5054460;28;19925;-61
2023/10/13 00:31:36;;;;;;;;;;;;;;;;;;5069717;28;19978;-61
2023/10/13 00:34:09;;;;;;;;;;;;;;;;;;5054144;28;19928;-61
2023/10/13 00:36:35;;;;;;;;;;;;;;;;;;5069649;28;20038;-62
2023/10/13 00:39:01;;;;;;;;;;;;;;;;;;5053847;28;19982;-62
2023/10/13 00:44:13;;;;;;;;;;;;;;;;;;5054011;28;19966;-62
2023/10/13 00:46:39;;;;;;;;;;;;;;;;;;5053898;28;19925;-62
2023/10/13 00:49:05;;;;;;;;;;;;;;;;;;5053731;28;19974;-60
2023/10/13 00:51:41;;;;;;;;;;;;;;;;;;5054085;28;20262;-60
2023/10/13 00:54:13;;;;;;;;;;;;;;;;;;5053626;28;20016;-60
2023/10/13 00:57:03;;;;;;;;;;;;;;;;;;5040659;28;20020;-62
2023/10/13 00:59:33;;;;;;;;;;;;;;;;;;5033629;28;19925;-62
2023/10/13 01:02:08;;;;;;;;;;;;;;;;;;5033968;28;19921;-62
2023/10/13 01:04:34;;;;;;;;;;;;;;;;;;5033916;28;19925;-62
2023/10/13 01:07:00;;;;;;;;;;;;;;;;;;5033593;28;20381;-63
2023/10/13 01:09:26;;;;;;;;;;;;;;;;;;5033708;28;19921;-63
2023/10/13 01:11:52;;;;;;;;;;;;;;;;;;5048767;28;19936;-62
2023/10/13 01:14:20;;;;;;;;;;;;;;;;;;5033325;28;20012;-63
2023/10/13 01:16:46;;;;;;;;;;;;;;;;;;5037709;28;19924;-63
2023/10/13 01:19:12;;;;;;;;;;;;;;;;;;5035232;28;19925;-63
2023/10/13 01:21:40;;;;;;;;;;;;;;;;;;5053423;28;19944;-63
2023/10/13 01:24:07;;;;;;;;;;;;;;;;;;5053276;28;19921;-63
2023/10/13 01:26:38;;;;;;;;;;;;;;;;;;5052697;28;19921;-62
2023/10/13 01:29:11;;;;;;;;;;;;;;;;;;5052381;28;19925;-63
2023/10/13 01:31:37;;;;;;;;;;;;;;;;;;5052495;28;19920;-62
2023/10/13 01:34:03;;;;;;;;;;;;;;;;;;5052943;28;19947;-62
2023/10/13 01:36:35;;;;;;;;;;;;;;;;;;5053097;28;19967;-62
2023/10/13 01:39:01;;;;;;;;;;;;;;;;;;5052608;28;20282;-62
2023/10/13 01:41:30;;;;;;;;;;;;;;;;;;5034919;28;20069;-62
2023/10/13 01:43:57;;;;;;;;;;;;;;;;;;5052770;28;19925;-62
2023/10/13 01:46:23;;;;;;;;;;;;;;;;;;5052805;28;20294;-62
2023/10/13 01:48:48;;;;;;;;;;;;;;;;;;5068135;28;19925;-62
2023/10/13 01:51:14;;;;;;;;;;;;;;;;;;5034680;28;19975;-62
2023/10/13 01:53:43;;;;;;;;;;;;;;;;;;5052539;28;19928;-62
2023/10/13 01:56:14;;;;;;;;;;;;;;;;;;5034056;28;19924;-64
2023/10/13 01:58:42;;;;;;;;;;;;;;;;;;5052739;28;19920;-62
2023/10/13 02:01:09;;;;;;;;;;;;;;;;;;5052268;28;20358;-62
2023/10/13 02:03:36;;;;;;;;;;;;;;;;;;5052769;28;19974;-62
2023/10/13 02:06:04;;;;;;;;;;;;;;;;;;5052303;28;19924;-62
2023/10/13 02:08:30;;;;;;;;;;;;;;;;;;5052366;28;19944;-62
2023/10/13 02:10:56;;;;;;;;;;;;;;;;;;5052513;28;20287;-62
2023/10/13 02:13:22;;;;;;;;;;;;;;;;;;5052276;28;20410;-62
2023/10/13 02:15:48;;;;;;;;;;;;;;;;;;5052267;28;19921;-62
2023/10/13 02:18:20;;;;;;;;;;;;;;;;;;5034229;28;20026;-61
2023/10/13 02:20:46;;;;;;;;;;;;;;;;;;5051985;28;19931;-61
2023/10/13 02:23:12;;;;;;;;;;;;;;;;;;5033882;28;20154;-61
2023/10/13 02:25:45;;;;;;;;;;;;;;;;;;5051218;28;19928;-61
2023/10/13 02:28:14;;;;;;;;;;;;;;;;;;5051970;28;20021;-61
2023/10/13 02:30:44;;;;;;;;;;;;;;;;;;5050814;28;20417;-61
2023/10/13 02:33:11;;;;;;;;;;;;;;;;;;5051045;28;19932;-61
2023/10/13 02:35:41;;;;;;;;;;;;;;;;;;5049437;28;19931;-61
2023/10/13 02:38:11;;;;;;;;;;;;;;;;;;5051067;28;19925;-61
2023/10/13 02:40:37;;;;;;;;;;;;;;;;;;5050556;28;19929;-61
2023/10/13 02:43:04;;;;;;;;;;;;;;;;;;5051104;28;19982;-61
2023/10/13 02:45:30;;;;;;;;;;;;;;;;;;5050694;28;19921;-61
2023/10/13 02:48:17;;;;;;;;;;;;;;;;;;5051740;28;19975;-61
2023/10/13 02:50:44;;;;;;;;;;;;;;;;;;5051619;28;20392;-61
2023/10/13 02:53:12;;;;;;;;;;;;;;;;;;5051848;28;19952;-61
2023/10/13 02:55:39;;;;;;;;;;;;;;;;;;5051203;28;20019;-61
2023/10/13 02:58:05;;;;;;;;;;;;;;;;;;5033299;28;20317;-61
2023/10/13 03:00:31;;;;;;;;;;;;;;;;;;5050686;28;19925;-61
2023/10/13 03:03:01;;;;;;;;;;;;;;;;;;5051616;28;19925;-61
2023/10/13 03:05:31;;;;;;;;;;;;;;;;;;5050845;28;19927;-61
2023/10/13 03:07:58;;;;;;;;;;;;;;;;;;5053634;28;19947;-61
2023/10/13 03:10:28;;;;;;;;;;;;;;;;;;5054667;28;20267;-61
2023/10/13 03:12:54;;;;;;;;;;;;;;;;;;5043545;28;19952;-61
2023/10/13 03:15:28;;;;;;;;;;;;;;;;;;5035083;28;19921;-62
2023/10/13 03:17:54;;;;;;;;;;;;;;;;;;5048521;28;19928;-62
2023/10/13 03:20:33;;;;;;;;;;;;;;;;;;5054769;28;19929;-61
2023/10/13 03:22:59;;;;;;;;;;;;;;;;;;5054830;28;20302;-61
2023/10/13 03:30:17;;;;;;;;;;;;;;;;;;5055537;28;19978;-62
2023/10/13 03:32:48;;;;;;;;;;;;;;;;;;5055429;28;19969;-62
2023/10/13 03:35:23;;;;;;;;;;;;;;;;;;5055362;28;19921;-62
2023/10/13 03:37:49;;;;;;;;;;;;;;;;;;5055251;28;19928;-61
2023/10/13 03:43:00;;;;;;;;;;;;;;;;;;5055172;28;19948;-61
2023/10/13 03:45:26;;;;;;;;;;;;;;;;;;5055225;28;19920;-62
2023/10/13 03:47:52;;;;;;;;;;;;;;;;;;5054875;28;19932;-62
2023/10/13 03:50:29;;;;;;;;;;;;;;;;;;5054962;28;19921;-61
2023/10/13 03:52:57;;;;;;;;;;;;;;;;;;5054996;28;19928;-61
2023/10/13 03:55:26;;;;;;;;;;;;;;;;;;5055083;28;19924;-62
2023/10/13 03:57:52;;;;;;;;;;;;;;;;;;5054868;28;19924;-62
2023/10/13 04:00:26;;;;;;;;;;;;;;;;;;5054763;28;19936;-62
2023/10/13 04:03:15;;;;;;;;;;;;;;;;;;5055063;28;19921;-62
2023/10/13 04:05:46;;;;;;;;;;;;;;;;;;5055008;28;20006;-62
2023/10/13 04:29:51;;;;;;;;;;;;;;;;;;5034340;28;19960;-61
2023/10/13 04:32:30;;;;;;;;;;;;;;;;;;5034288;28;19972;-61
2023/10/13 04:34:59;;;;;;;;;;;;;;;;;;5000200;28;19921;-61
2023/10/13 04:37:47;;;;;;;;;;;;;;;;;;5034161;28;19921;-60
2023/10/13 04:40:14;;;;;;;;;;;;;;;;;;5034040;28;19929;-60
2023/10/13 04:42:49;;;;;;;;;;;;;;;;;;5033908;28;19968;-61
2023/10/13 04:47:57;;;;;;;;;;;;;;;;;;5034177;28;19939;-61
2023/10/13 04:50:34;;;;;;;;;;;;;;;;;;5034030;28;19925;-61
2023/10/13 04:53:13;;;;;;;;;;;;;;;;;;5032813;28;20011;-61
2023/10/13 04:56:07;;;;;;;;;;;;;;;;;;5052551;28;19951;-61
2023/10/13 05:45:24;;;;;;;;;;;;;;;;;;5052773;28;20294;-61
2023/10/13 06:31:05;;;;;;;;;;;;;;;;;;5051436;28;19921;-61
2023/10/13 06:33:33;;;;;;;;;;;;;;;;;;5051320;28;19924;-60
2023/10/13 06:35:59;;;;;;;;;;;;;;;;;;5051487;28;19927;-61
2023/10/13 06:38:30;;;;;;;;;;;;;;;;;;5051574;28;20267;-61
2023/10/13 06:40:56;;;;;;;;;;;;;;;;;;5051339;28;20290;-60
2023/10/13 06:43:23;;;;;;;;;;;;;;;;;;5051579;28;19927;-60
2023/10/13 06:46:01;;;;;;;;;;;;;;;;;;5066652;28;20014;-60
2023/10/13 06:48:32;;;;;;;;;;;;;;;;;;5051018;28;19924;-60
2023/10/13 06:51:03;;;;;;;;;;;;;;;;;;5051724;28;19924;-60
2023/10/13 06:53:29;;;;;;;;;;;;;;;;;;5077955;28;19952;-60
2023/10/13 06:55:58;;;;;;;;;;;;;;;;;;5051924;28;20262;-60
2023/10/13 06:58:24;;;;;;;;;;;;;;;;;;5051842;28;19935;-60
2023/10/13 07:00:54;;;;;;;;;;;;;;;;;;5051511;28;19924;-60
2023/10/13 07:03:19;;;;;;;;;;;;;;;;;;5051694;28;19921;-60
2023/10/13 07:05:48;;;;;;;;;;;;;;;;;;5051490;28;20341;-60
2023/10/13 07:08:19;;;;;;;;;;;;;;;;;;5051907;28;19921;-60
2023/10/13 07:10:48;;;;;;;;;;;;;;;;;;5051708;28;19920;-60
2023/10/13 07:13:14;;;;;;;;;;;;;;;;;;5051675;28;20334;-61
2023/10/13 07:15:44;;;;;;;;;;;;;;;;;;5051520;28;19924;-60
2023/10/13 07:18:12;;;;;;;;;;;;;;;;;;5051524;28;19974;-60
2023/10/13 07:20:43;;;;;;;;;;;;;;;;;;5066645;28;19935;-61
2023/10/13 07:23:11;;;;;;;;;;;;;;;;;;5050928;28;19921;-60
2023/10/13 07:25:38;;;;;;;;;;;;;;;;;;5050755;28;20362;-61
2023/10/13 07:28:04;;;;;;;;;;;;;;;;;;5051402;28;19951;-60
2023/10/13 07:30:39;;;;;;;;;;;;;;;;;;5066325;28;20324;-60
2023/10/13 07:33:05;;;;;;;;;;;;;;;;;;5050838;28;19921;-60
2023/10/13 07:35:35;;;;;;;;;;;;;;;;;;5050857;28;20012;-60
2023/10/13 07:38:01;;;;;;;;;;;;;;;;;;5051015;28;20007;-61
2023/10/13 07:43:00;;;;;;;;;;;;;;;;;;5051008;28;19935;-60
2023/10/13 07:45:35;;;;;;;;;;;;;;;;;;5044663;28;19970;-59
2023/10/13 07:48:07;;;;;;;;;;;;;;;;;;5046533;28;19929;-60
2023/10/13 07:50:34;;;;;;;;;;;;;;;;;;5031376;28;19929;-60
2023/10/13 07:53:04;;;;;;;;;;;;;;;;;;5042494;28;19921;-60
2023/10/13 07:55:33;;;;;;;;;;;;;;;;;;5054939;28;19967;-60
2023/10/13 07:57:59;;;;;;;;;;;;;;;;;;5054873;28;20316;-60
2023/10/13 08:08:26;;;;;;;;;;;;;;;;;;5054606;28;20389;-60
2023/10/13 08:10:55;;;;;;;;;;;;;;;;;;5053165;28;19920;-61
2023/10/13 08:13:21;;;;;;;;;;;;;;;;;;5054681;28;19928;-59
2023/10/13 08:15:47;;;;;;;;;;;;;;;;;;5054387;28;20679;-60
2023/10/13 08:18:30;;;;;;;;;;;;;;;;;;5054615;28;19964;-60
2023/10/13 08:21:02;;;;;;;;;;;;;;;;;;5054481;28;20050;-61
2023/10/13 08:23:57;;;;;;;;;;;;;;;;;;5054367;28;19921;-61
2023/10/13 08:26:29;;;;;;;;;;;;;;;;;;5054116;28;19963;-61
2023/10/13 08:28:56;;;;;;;;;;;;;;;;;;5054326;28;19996;-61
2023/10/13 08:31:22;;;;;;;;;;;;;;;;;;5054296;28;19925;-61
2023/10/13 08:33:48;;;;;;;;;;;;;;;;;;5069507;28;19920;-61
2023/10/13 08:36:27;;;;;;;;;;;;;;;;;;5054231;28;19925;-61
2023/10/13 08:38:55;;;;;;;;;;;;;;;;;;5053987;28;19925;-61
2023/10/13 08:43:53;;;;;;;;;;;;;;;;;;5053969;28;19975;-61
2023/10/13 08:46:28;;;;;;;;;;;;;;;;;;5053980;28;19978;-61
2023/10/13 08:49:03;;;;;;;;;;;;;;;;;;5069490;28;20301;-61
2023/10/13 08:51:43;;;;;;;;;;;;;;;;;;5069044;28;20464;-61
2023/10/13 08:54:18;;;;;;;;;;;;;;;;;;5053213;28;19924;-61
2023/10/13 08:56:54;;;;;;;;;;;;;;;;;;5052774;28;19928;-61
2023/10/13 08:59:33;;;;;;;;;;;;;;;;;;5053032;28;19928;-62
2023/10/13 09:02:59;;;;;;;;;;;;;;;;;;5053161;28;20374;-60
2023/10/13 09:04:59;;;;;;;;;;;;;;;;;;5047051;28;19921;-61
2023/10/13 09:07:25;;;;;;;;;;;;;;;;;;5052700;28;19967;-61
2023/10/13 09:12:18;;;;;;;;;;;;;;;;;;5052435;28;20035;-61
2023/10/13 09:14:44;;;;;;;;;;;;;;;;;;5052945;28;19921;-61
2023/10/13 09:19:48;;;;;;;;;;;;;;;;;;5052704;28;19933;-61
2023/10/13 09:22:24;;;;;;;;;;;;;;;;;;5052921;28;19968;-61
2023/10/13 09:24:51;;;;;;;;;;;;;;;;;;5053334;28;19924;-61
2023/10/13 09:27:17;;;;;;;;;;;;;;;;;;5053131;28;19920;-61
2023/10/13 09:29:46;;;;;;;;;;;;;;;;;;5053378;28;19925;-61
2023/10/13 09:32:12;;;;;;;;;;;;;;;;;;5068564;28;19924;-61
2023/10/13 09:34:40;;;;;;;;;;;;;;;;;;5053111;28;19987;-61
2023/10/13 09:37:09;;;;;;;;;;;;;;;;;;5052591;28;19928;-61
2023/10/13 09:39:57;;;;;;;;;;;;;;;;;;5052079;28;19932;-61
2023/10/13 09:42:26;;;;;;;;;;;;;;;;;;5067487;28;20045;-61
2023/10/13 09:44:55;;;;;;;;;;;;;;;;;;5052001;28;20582;-61
2023/10/13 09:47:24;;;;;;;;;;;;;;;;;;5052202;28;20290;-61
2023/10/13 09:49:51;;;;;;;;;;;;;;;;;;5051939;28;20023;-61
2023/10/13 09:52:20;;;;;;;;;;;;;;;;;;5052071;28;20375;-61
2023/10/13 09:54:48;;;;;;;;;;;;;;;;;;5052245;28;19928;-61
2023/10/13 09:57:17;;;;;;;;;;;;;;;;;;5052082;28;19964;-61
2023/10/13 09:59:49;;;;;;;;;;;;;;;;;;5051829;28;20382;-61
2023/10/13 10:02:19;;;;;;;;;;;;;;;;;;5050563;28;19947;-62
2023/10/13 10:04:51;;;;;;;;;;;;;;;;;;5052006;28;20416;-61
2023/10/13 10:07:19;;;;;;;;;;;;;;;;;;5052001;28;21220;-61
2023/10/13 10:09:45;;;;;;;;;;;;;;;;;;5052240;28;19972;-62
2023/10/13 10:12:11;;;;;;;;;;;;;;;;;;5051881;28;19964;-61
2023/10/13 10:14:41;;;;;;;;;;;;;;;;;;5051586;28;20319;-61
2023/10/13 10:17:10;;;;;;;;;;;;;;;;;;5051163;28;19921;-61
2023/10/13 10:19:36;;;;;;;;;;;;;;;;;;5051347;28;19931;-61
2023/10/13 10:22:16;;;;;;;;;;;;;;;;;;5051712;28;19925;-61
2023/10/13 10:24:42;;;;;;;;;;;;;;;;;;5051539;28;20267;-61
2023/10/13 10:27:08;;;;;;;;;;;;;;;;;;5051473;28;19931;-61
2023/10/13 10:29:34;;;;;;;;;;;;;;;;;;5051511;28;20266;-61
2023/10/13 10:32:00;;;;;;;;;;;;;;;;;;5051181;28;19935;-62
2023/10/13 10:34:26;;;;;;;;;;;;;;;;;;5051598;28;19928;-61
2023/10/13 10:36:52;;;;;;;;;;;;;;;;;;5067413;28;19929;-61
2023/10/13 10:39:18;;;;;;;;;;;;;;;;;;5066849;28;20326;-61
2023/10/13 10:41:51;;;;;;;;;;;;;;;;;;5052160;28;19928;-61
2023/10/13 10:44:34;;;;;;;;;;;;;;;;;;5052092;28;19921;-61
2023/10/13 10:47:01;;;;;;;;;;;;;;;;;;5052095;28;19925;-61
2023/10/13 10:49:29;;;;;;;;;;;;;;;;;;5051602;28;19921;-62
2023/10/13 10:51:57;;;;;;;;;;;;;;;;;;5051675;28;19924;-61
2023/10/13 10:54:30;;;;;;;;;;;;;;;;;;5083603;22;19925;-63
2023/10/13 10:56:55;;;;;;;;;;;;;;;;;;5051362;28;19929;-63
2023/10/13 10:59:25;;;;;;;;;;;;;;;;;;5051150;28;19921;-63
2023/10/13 11:01:51;;;;;;;;;;;;;;;;;;5051876;28;19932;-63
2023/10/13 11:06:48;;;;;;;;;;;;;;;;;;5052122;28;19932;-63
2023/10/13 11:11:52;;;;;;;;;;;;;;;;;;5051397;28;20013;-63
2023/10/13 11:14:22;;;;;;;;;;;;;;;;;;5051662;28;19975;-63
2023/10/13 11:16:50;;;;;;;;;;;;;;;;;;5047683;28;19921;-63
2023/10/13 11:19:16;;;;;;;;;;;;;;;;;;5031847;28;19944;-63
2023/10/13 11:21:42;;;;;;;;;;;;;;;;;;5030505;28;20550;-63
2023/10/13 11:24:11;;;;;;;;;;;;;;;;;;5031965;28;19925;-63
2023/10/13 11:26:49;;;;;;;;;;;;;;;;;;5013998;28;19921;-63
2023/10/13 11:29:18;;;;;;;;;;;;;;;;;;5048775;28;19964;-64
2023/10/13 11:31:44;;;;;;;;;;;;;;;;;;5055777;28;19925;-64
2023/10/13 11:34:16;;;;;;;;;;;;;;;;;;5055689;28;19964;-64
2023/10/13 11:36:41;;;;;;;;;;;;;;;;;;5055803;28;19974;-64
2023/10/13 11:39:07;;;;;;;;;;;;;;;;;;5055447;28;19920;-64
2023/10/13 11:41:35;;;;;;;;;;;;;;;;;;5055741;28;20405;-64
2023/10/13 11:44:23;;;;;;;;;;;;;;;;;;5037762;28;19924;-63
2023/10/13 11:46:55;;;;;;;;;;;;;;;;;;5037669;28;19978;-63
2023/10/13 11:52:15;;;;;;;;;;;;;;;;;;5069649;28;19978;-63
2023/10/13 11:54:41;;;;;;;;;;;;;;;;;;5035175;28;19921;-63
2023/10/13 11:57:07;;;;;;;;;;;;;;;;;;5035171;28;19941;-64
2023/10/13 11:59:36;;;;;;;;;;;;;;;;;;5035015;28;19921;-64
2023/10/13 12:04:51;;;;;;;;;;;;;;;;;;5054858;28;20325;-64
2023/10/13 12:07:19;;;;;;;;;;;;;;;;;;5055136;28;19925;-64
2023/10/13 12:12:20;;;;;;;;;;;;;;;;;;5055080;28;19963;-64
2023/10/13 12:14:52;;;;;;;;;;;;;;;;;;5054501;28;20325;-64
2023/10/13 12:17:24;;;;;;;;;;;;;;;;;;5044853;28;19967;-64
2023/10/13 12:19:51;;;;;;;;;;;;;;;;;;5034677;28;20019;-63
2023/10/13 12:22:25;;;;;;;;;;;;;;;;;;5034985;28;19925;-63
2023/10/13 12:24:53;;;;;;;;;;;;;;;;;;5034754;28;19921;-63
2023/10/13 12:27:19;;;;;;;;;;;;;;;;;;5034683;28;20322;-63
2023/10/13 12:29:46;;;;;;;;;;;;;;;;;;5034594;28;19940;-63
2023/10/13 12:32:12;;;;;;;;;;;;;;;;;;5034694;28;19991;-63
2023/10/13 12:34:57;;;;;;;;;;;;;;;;;;5034848;28;19940;-63
2023/10/13 12:53:50;;;;;;;;;;;;;;;;;;5033351;28;20539;-64
2023/10/13 12:56:16;;;;;;;;;;;;;;;;;;5015876;28;19931;-63
2023/10/13 12:58:51;;;;;;;;;;;;;;;;;;5033592;28;19921;-64
2023/10/13 13:01:20;;;;;;;;;;;;;;;;;;5033220;28;20333;-64
2023/10/13 13:03:46;;;;;;;;;;;;;;;;;;5033251;28;19925;-64
2023/10/13 13:06:12;;;;;;;;;;;;;;;;;;5033611;28;19999;-63
2023/10/13 13:08:44;;;;;;;;;;;;;;;;;;5033647;28;19925;-64
2023/10/13 13:11:10;;;;;;;;;;;;;;;;;;5042778;28;20334;-64
2023/10/13 13:13:36;;;;;;;;;;;;;;;;;;5052986;28;20517;-64
2023/10/13 13:16:03;;;;;;;;;;;;;;;;;;5053026;28;19924;-63
2023/10/13 13:18:29;;;;;;;;;;;;;;;;;;5034935;28;19947;-64
2023/10/13 13:20:55;;;;;;;;;;;;;;;;;;5032733;28;19929;-64
2023/10/13 13:23:25;;;;;;;;;;;;;;;;;;5032642;28;20379;-64
2023/10/13 13:25:51;;;;;;;;;;;;;;;;;;5032904;28;19921;-64
2023/10/13 13:28:17;;;;;;;;;;;;;;;;;;5032496;28;19920;-64
2023/10/13 13:30:43;;;;;;;;;;;;;;;;;;5032816;28;19921;-64
2023/10/13 13:33:12;;;;;;;;;;;;;;;;;;5032348;28;19921;-64
2023/10/13 13:35:38;;;;;;;;;;;;;;;;;;5032585;28;20071;-64
2023/10/13 13:38:09;;;;;;;;;;;;;;;;;;5033079;28;19924;-64
2023/10/13 13:40:35;;;;;;;;;;;;;;;;;;5033403;28;20020;-64
2023/10/13 13:43:01;;;;;;;;;;;;;;;;;;5032119;28;20347;-64
2023/10/13 13:45:27;;;;;;;;;;;;;;;;;;5032195;28;19925;-64
2023/10/13 13:47:53;;;;;;;;;;;;;;;;;;5033153;28;19964;-64
2023/10/13 13:50:24;;;;;;;;;;;;;;;;;;5032336;28;19967;-64
2023/10/13 13:52:52;;;;;;;;;;;;;;;;;;5033228;28;20319;-63
2023/10/13 13:55:18;;;;;;;;;;;;;;;;;;5033184;28;19960;-63
2023/10/13 13:57:44;;;;;;;;;;;;;;;;;;5032890;28;19995;-63
2023/10/13 14:00:16;;;;;;;;;;;;;;;;;;5033053;28;19921;-63
2023/10/13 14:02:47;;;;;;;;;;;;;;;;;;5015257;28;19955;-63
2023/10/13 14:05:15;;;;;;;;;;;;;;;;;;5033182;28;20346;-63
2023/10/13 14:07:41;;;;;;;;;;;;;;;;;;5033111;28;19924;-63
2023/10/13 14:10:15;;;;;;;;;;;;;;;;;;5032942;28;19921;-63
2023/10/13 14:12:41;;;;;;;;;;;;;;;;;;5033052;28;19929;-63
2023/10/13 14:15:19;;;;;;;;;;;;;;;;;;5015047;28;19921;-64
2023/10/13 14:17:46;;;;;;;;;;;;;;;;;;5015066;28;20553;-63
2023/10/13 14:20:18;;;;;;;;;;;;;;;;;;5014837;28;19925;-63
2023/10/13 14:22:47;;;;;;;;;;;;;;;;;;5032674;28;19972;-63
2023/10/13 14:25:14;;;;;;;;;;;;;;;;;;5032593;28;19921;-64
2023/10/13 14:27:40;;;;;;;;;;;;;;;;;;5032547;28;20252;-64
2023/10/13 14:30:06;;;;;;;;;;;;;;;;;;5032514;28;19921;-64
2023/10/13 14:32:32;;;;;;;;;;;;;;;;;;5014448;28;19932;-63
2023/10/13 14:35:00;;;;;;;;;;;;;;;;;;5032446;28;20362;-63
2023/10/13 14:37:30;;;;;;;;;;;;;;;;;;5014482;28;19925;-63
2023/10/13 14:39:59;;;;;;;;;;;;;;;;;;5032252;28;20024;-63
2023/10/13 14:42:25;;;;;;;;;;;;;;;;;;5032161;28;19982;-63
2023/10/13 14:44:57;;;;;;;;;;;;;;;;;;5032311;28;20008;-63
2023/10/13 14:47:24;;;;;;;;;;;;;;;;;;5032151;28;20012;-63
2023/10/13 14:49:50;;;;;;;;;;;;;;;;;;5032175;28;20366;-63
2023/10/13 14:52:17;;;;;;;;;;;;;;;;;;5032228;28;19929;-63
2023/10/13 14:54:43;;;;;;;;;;;;;;;;;;5031945;28;20374;-63
2023/10/13 14:57:09;;;;;;;;;;;;;;;;;;5031972;28;19926;-63
2023/10/13 14:59:38;;;;;;;;;;;;;;;;;;5032085;28;19940;-63
2023/10/13 15:02:04;;;;;;;;;;;;;;;;;;5034303;28;19936;-63
2023/10/13 15:04:32;;;;;;;;;;;;;;;;;;5038350;28;19925;-62
2023/10/13 15:06:58;;;;;;;;;;;;;;;;;;5038573;28;19979;-63
2023/10/13 15:09:24;;;;;;;;;;;;;;;;;;5054048;28;20591;-63
2023/10/13 15:11:53;;;;;;;;;;;;;;;;;;5038389;28;19928;-64
2023/10/13 15:14:20;;;;;;;;;;;;;;;;;;5020547;28;19925;-63
2023/10/13 15:16:46;;;;;;;;;;;;;;;;;;5038693;28;19921;-63
2023/10/13 15:19:12;;;;;;;;;;;;;;;;;;5038674;28;20241;-63
2023/10/13 15:21:39;;;;;;;;;;;;;;;;;;5038840;28;19932;-63
2023/10/13 15:24:16;;;;;;;;;;;;;;;;;;5020432;28;19932;-63
2023/10/13 15:26:45;;;;;;;;;;;;;;;;;;5021399;28;20405;-63
2023/10/13 15:29:12;;;;;;;;;;;;;;;;;;5058385;28;19921;-63
2023/10/13 15:31:40;;;;;;;;;;;;;;;;;;5023811;28;19925;-64
2023/10/13 15:34:12;;;;;;;;;;;;;;;;;;5058244;28;19927;-63
2023/10/13 15:36:39;;;;;;;;;;;;;;;;;;5040266;28;19929;-63
2023/10/13 15:39:08;;;;;;;;;;;;;;;;;;5058544;28;19925;-64
2023/10/13 15:41:34;;;;;;;;;;;;;;;;;;5058506;28;19927;-63
2023/10/13 15:44:01;;;;;;;;;;;;;;;;;;5040431;28;19924;-63
2023/10/13 15:46:27;;;;;;;;;;;;;;;;;;5058172;28;19975;-63
2023/10/13 15:48:53;;;;;;;;;;;;;;;;;;5058214;28;19921;-63
2023/10/13 15:51:19;;;;;;;;;;;;;;;;;;5058216;28;20284;-63
2023/10/13 15:53:47;;;;;;;;;;;;;;;;;;5041712;28;19961;-63
2023/10/13 15:56:14;;;;;;;;;;;;;;;;;;5038149;28;19925;-63
2023/10/13 15:58:40;;;;;;;;;;;;;;;;;;5037622;28;20506;-63
2023/10/13 16:01:09;;;;;;;;;;;;;;;;;;5052701;28;19928;-64
2023/10/13 16:03:35;;;;;;;;;;;;;;;;;;5037502;28;20011;-63
2023/10/13 16:06:01;;;;;;;;;;;;;;;;;;5037168;28;20055;-63
2023/10/13 16:08:27;;;;;;;;;;;;;;;;;;5037282;28;19974;-63
2023/10/13 16:10:53;;;;;;;;;;;;;;;;;;5052341;28;20027;-63
2023/10/13 16:13:19;;;;;;;;;;;;;;;;;;5035488;28;19921;-63
2023/10/13 16:15:47;;;;;;;;;;;;;;;;;;5033911;28;19960;-63
2023/10/13 16:18:13;;;;;;;;;;;;;;;;;;5033762;28;20020;-63
2023/10/13 16:20:39;;;;;;;;;;;;;;;;;;5033675;28;20586;-64
2023/10/13 16:23:05;;;;;;;;;;;;;;;;;;5034188;28;19925;-64
2023/10/13 16:25:31;;;;;;;;;;;;;;;;;;5033789;28;19927;-64
2023/10/13 16:27:57;;;;;;;;;;;;;;;;;;5034666;28;19959;-64
2023/10/13 16:30:23;;;;;;;;;;;;;;;;;;5034659;28;19921;-64
2023/10/13 16:32:49;;;;;;;;;;;;;;;;;;5034682;28;19921;-64
2023/10/13 16:35:18;;;;;;;;;;;;;;;;;;5034599;28;20358;-64
2023/10/13 16:37:45;;;;;;;;;;;;;;;;;;5033009;28;19945;-64
2023/10/13 16:40:11;;;;;;;;;;;;;;;;;;5034281;28;19929;-64
2023/10/13 16:42:39;;;;;;;;;;;;;;;;;;5032962;28;19929;-64
2023/10/13 16:45:14;;;;;;;;;;;;;;;;;;5034173;28;20342;-64
2023/10/13 16:47:42;;;;;;;;;;;;;;;;;;5034113;28;19978;-64
2023/10/13 16:50:08;;;;;;;;;;;;;;;;;;5034201;28;19955;-64
2023/10/13 16:52:34;;;;;;;;;;;;;;;;;;5034296;28;20526;-64
2023/10/13 16:55:00;;;;;;;;;;;;;;;;;;5032473;28;19956;-64
2023/10/13 16:57:26;;;;;;;;;;;;;;;;;;5033998;28;19952;-64
2023/10/13 16:59:52;;;;;;;;;;;;;;;;;;5049191;28;19925;-64
2023/10/13 17:02:18;;;;;;;;;;;;;;;;;;5034296;28;19933;-63
2023/10/13 17:04:44;;;;;;;;;;;;;;;;;;5034036;28;20394;-63
2023/10/13 17:07:13;;;;;;;;;;;;;;;;;;5033787;28;19925;-64
2023/10/13 17:09:39;;;;;;;;;;;;;;;;;;5032796;28;20440;-65
2023/10/13 17:12:05;;;;;;;;;;;;;;;;;;5033297;28;19923;-65
2023/10/13 17:14:31;;;;;;;;;;;;;;;;;;5032860;28;19925;-65
2023/10/13 17:16:57;;;;;;;;;;;;;;;;;;5033244;28;19921;-65
2023/10/13 17:19:23;;;;;;;;;;;;;;;;;;5033601;28;20418;-64
2023/10/13 17:21:50;;;;;;;;;;;;;;;;;;5032286;28;20015;-65
2023/10/13 17:24:16;;;;;;;;;;;;;;;;;;5033585;28;19921;-65
2023/10/13 17:26:42;;;;;;;;;;;;;;;;;;5030891;28;19928;-65
2023/10/13 17:29:09;;;;;;;;;;;;;;;;;;5033348;28;19931;-65
2023/10/13 17:31:35;;;;;;;;;;;;;;;;;;5033333;28;19921;-65
2023/10/13 17:34:02;;;;;;;;;;;;;;;;;;5033201;28;19925;-65
2023/10/13 17:36:29;;;;;;;;;;;;;;;;;;5033240;28;19979;-64
2023/10/13 17:38:55;;;;;;;;;;;;;;;;;;5033422;28;19929;-64
2023/10/13 17:41:23;;;;;;;;;;;;;;;;;;5033156;28;19921;-64
2023/10/13 17:43:49;;;;;;;;;;;;;;;;;;5033308;28;19929;-64
2023/10/13 17:46:15;;;;;;;;;;;;;;;;;;5033214;28;20375;-64
2023/10/13 17:48:41;;;;;;;;;;;;;;;;;;5033290;28;19921;-64
2023/10/13 17:51:08;;;;;;;;;;;;;;;;;;5031592;28;19925;-64
2023/10/13 17:53:34;;;;;;;;;;;;;;;;;;5032761;28;20359;-64
2023/10/13 17:56:00;;;;;;;;;;;;;;;;;;5032799;28;20383;-64
2023/10/13 17:58:26;;;;;;;;;;;;;;;;;;5015082;28;19928;-64
2023/10/13 18:00:52;;;;;;;;;;;;;;;;;;5032629;28;19925;-64
2023/10/13 18:03:17;;;;;;;;;;;;;;;;;;5033040;28;20375;-64
2023/10/13 18:05:45;;;;;;;;;;;;;;;;;;5032903;28;19925;-64
2023/10/13 18:08:11;;;;;;;;;;;;;;;;;;5033009;28;19956;-64
2023/10/13 18:10:37;;;;;;;;;;;;;;;;;;5032668;28;20014;-64
2023/10/13 18:13:03;;;;;;;;;;;;;;;;;;5032428;28;20256;-64
2023/10/13 18:15:29;;;;;;;;;;;;;;;;;;5032807;28;19921;-64
2023/10/13 18:17:56;;;;;;;;;;;;;;;;;;5032674;28;19929;-63
2023/10/13 18:20:24;;;;;;;;;;;;;;;;;;5032530;28;20451;-64
2023/10/13 18:22:53;;;;;;;;;;;;;;;;;;5032530;28;19957;-64
2023/10/13 18:25:24;;;;;;;;;;;;;;;;;;5032510;28;19961;-64
2023/10/13 18:27:49;;;;;;;;;;;;;;;;;;5032863;28;20333;-64
2023/10/13 18:30:15;;;;;;;;;;;;;;;;;;5032542;28;20012;-64
2023/10/13 18:32:41;;;;;;;;;;;;;;;;;;5030936;28;19925;-64
2023/10/13 18:35:11;;;;;;;;;;;;;;;;;;5032231;28;20283;-63
2023/10/13 18:37:36;;;;;;;;;;;;;;;;;;5031717;28;19943;-64
2023/10/13 18:40:06;;;;;;;;;;;;;;;;;;5031999;28;20532;-64
2023/10/13 18:42:32;;;;;;;;;;;;;;;;;;5014390;28;19936;-64
2023/10/13 18:44:57;;;;;;;;;;;;;;;;;;5032259;28;20290;-65
2023/10/13 18:47:23;;;;;;;;;;;;;;;;;;5014239;28;19921;-65
2023/10/13 18:49:49;;;;;;;;;;;;;;;;;;5031977;28;19975;-65
2023/10/13 18:52:16;;;;;;;;;;;;;;;;;;5031858;28;19935;-65
2023/10/13 18:54:42;;;;;;;;;;;;;;;;;;5031968;28;19928;-65
2023/10/13 18:57:08;;;;;;;;;;;;;;;;;;5032038;28;19929;-64
2023/10/13 18:59:34;;;;;;;;;;;;;;;;;;5031834;28;19971;-64
2023/10/13 19:02:00;;;;;;;;;;;;;;;;;;5031984;28;19926;-64
2023/10/13 19:04:27;;;;;;;;;;;;;;;;;;5032035;28;20066;-64
2023/10/13 19:06:53;;;;;;;;;;;;;;;;;;5032180;28;19928;-64
2023/10/13 19:09:24;;;;;;;;;;;;;;;;;;5031766;28;19922;-64
2023/10/13 19:11:50;;;;;;;;;;;;;;;;;;5030517;28;19928;-65
2023/10/13 19:14:16;;;;;;;;;;;;;;;;;;5013995;28;19925;-64
2023/10/13 19:16:46;;;;;;;;;;;;;;;;;;5031663;28;19944;-64
2023/10/13 19:19:11;;;;;;;;;;;;;;;;;;5031815;28;20000;-65
2023/10/13 19:21:37;;;;;;;;;;;;;;;;;;5031525;28;20455;-65
2023/10/13 19:24:03;;;;;;;;;;;;;;;;;;5031845;28;20410;-65
2023/10/13 19:26:29;;;;;;;;;;;;;;;;;;5031894;28;19921;-64
2023/10/13 19:28:55;;;;;;;;;;;;;;;;;;5031718;28;20314;-64
2023/10/13 19:31:24;;;;;;;;;;;;;;;;;;5031850;28;19925;-64
2023/10/13 19:33:50;;;;;;;;;;;;;;;;;;5031723;28;19955;-64
2023/10/13 19:36:17;;;;;;;;;;;;;;;;;;5013775;28;19921;-64
2023/10/13 19:38:43;;;;;;;;;;;;;;;;;;5031730;28;19925;-64
2023/10/13 19:41:09;;;;;;;;;;;;;;;;;;5031704;28;20318;-64
2023/10/13 19:43:35;;;;;;;;;;;;;;;;;;5031565;28;19929;-64
2023/10/13 19:46:01;;;;;;;;;;;;;;;;;;5031615;28;20272;-64
2023/10/13 19:48:27;;;;;;;;;;;;;;;;;;5031789;28;19925;-64